createdAt,value
2023-03-22T00:01:43.438Z,16.90
2023-03-22T00:04:46.199Z,22.90
2023-03-22T00:07:54.247Z,20.33
2023-03-22T00:10:56.876Z,20.25
2023-03-22T00:13:59.755Z,17.98
2023-03-22T00:17:02.467Z,16.33
2023-03-22T00:20:08.653Z,19.38
2023-03-22T00:23:11.534Z,18.15
2023-03-22T00:26:15.139Z,19.02
2023-03-22T00:29:19.957Z,18.42
2023-03-22T00:32:22.792Z,17.38
2023-03-22T00:35:25.801Z,19.77
2023-03-22T00:38:42.482Z,17.35
2023-03-22T00:41:46.293Z,17.38
2023-03-22T00:44:48.921Z,18.70
2023-03-22T00:47:51.530Z,18.80
2023-03-22T00:50:54.234Z,20.42
2023-03-22T00:53:56.874Z,19.73
2023-03-22T00:56:59.402Z,19.17
2023-03-22T01:00:16.132Z,18.70
2023-03-22T01:03:22.031Z,17.30
2023-03-22T01:06:25.004Z,18.70
2023-03-22T01:09:30.962Z,17.45
2023-03-22T01:12:33.499Z,17.77
2023-03-22T01:15:36.704Z,19.98
2023-03-22T01:18:39.623Z,16.60
2023-03-22T01:21:42.856Z,19.95
2023-03-22T01:24:45.439Z,19.08
2023-03-22T01:27:48.260Z,20.40
2023-03-22T01:30:51.473Z,16.85
2023-03-22T01:33:54.193Z,18.15
2023-03-22T01:36:58.525Z,21.48
2023-03-22T01:40:01.757Z,24.35
2023-03-22T01:43:11.890Z,20.55
2023-03-22T01:46:14.916Z,16.50
2023-03-22T01:49:24.316Z,18.77
2023-03-22T01:52:27.704Z,16.52
2023-03-22T01:55:44.017Z,15.75
2023-03-22T01:58:52.390Z,18.17
2023-03-22T02:02:02.858Z,17.30
2023-03-22T02:08:08.937Z,19.30
2023-03-22T02:11:38.614Z,17.17
2023-03-22T02:15:10.909Z,16.25
2023-03-22T02:19:10.998Z,16.60
2023-03-22T02:22:45.242Z,20.70
2023-03-22T02:26:07.138Z,18.08
2023-03-22T02:29:34.938Z,22.55
2023-03-22T02:32:52.659Z,19.98
2023-03-22T02:36:11.275Z,22.60
2023-03-22T02:39:38.855Z,18.25
2023-03-22T02:43:01.451Z,16.95
2023-03-22T02:46:20.384Z,15.40
2023-03-22T02:49:33.076Z,17.58
2023-03-22T02:52:44.324Z,17.65
2023-03-22T02:55:52.783Z,17.40
2023-03-22T02:58:59.597Z,18.17
2023-03-22T03:02:03.842Z,17.42
2023-03-22T03:05:08.610Z,20.33
2023-03-22T03:08:14.332Z,19.88
2023-03-22T03:11:18.300Z,19.02
2023-03-22T03:14:29.087Z,21.52
2023-03-22T03:18:00.983Z,17.73
2023-03-22T03:21:09.910Z,19.92
2023-03-22T03:24:36.677Z,19.45
2023-03-22T03:27:51.064Z,21.13
2023-03-22T03:31:03.544Z,20.75
2023-03-22T03:34:13.580Z,21.55
2023-03-22T03:37:22.857Z,18.90
2023-03-22T03:40:33.000Z,22.10
2023-03-22T03:43:37.241Z,23.30
2023-03-22T03:46:41.820Z,20.70
2023-03-22T03:49:44.608Z,22.20
2023-03-22T03:52:47.251Z,20.77
2023-03-22T03:55:49.926Z,19.15
2023-03-22T03:58:53.096Z,22.35
2023-03-22T04:01:56.303Z,22.63
2023-03-22T04:05:04.701Z,20.90
2023-03-22T04:08:07.882Z,18.25
2023-03-22T04:11:10.685Z,24.50
2023-03-22T04:14:14.914Z,25.05
2023-03-22T04:17:17.668Z,19.30
2023-03-22T04:20:20.997Z,18.42
2023-03-22T04:23:25.734Z,24.02
2023-03-22T04:26:29.368Z,25.55
2023-03-22T04:30:01.386Z,23.13
2023-03-22T04:33:39.589Z,25.67
2023-03-22T04:36:54.460Z,22.75
2023-03-22T04:40:16.042Z,21.70
2023-03-22T04:43:35.650Z,21.77
2023-03-22T04:46:42.859Z,22.90
2023-03-22T04:49:46.260Z,21.98
2023-03-22T04:52:51.319Z,23.90
2023-03-22T04:55:57.577Z,27.65
2023-03-22T04:59:02.522Z,22.67
2023-03-22T05:02:05.628Z,23.58
2023-03-22T05:05:16.477Z,31.08
2023-03-22T05:08:25.200Z,26.17
2023-03-22T05:11:28.579Z,27.77
2023-03-22T05:14:54.469Z,31.17
2023-03-22T05:18:02.248Z,25.70
2023-03-22T05:21:16.559Z,24.67
2023-03-22T05:24:20.742Z,22.95
2023-03-22T05:27:31.510Z,25.98
2023-03-22T05:30:48.806Z,31.02
2023-03-22T05:34:12.244Z,22.05
2023-03-22T05:37:16.859Z,22.38
2023-03-22T05:40:29.459Z,20.33
2023-03-22T05:43:32.903Z,20.50
2023-03-22T05:46:35.913Z,20.10
2023-03-22T05:50:01.464Z,29.75
2023-03-22T05:53:05.658Z,24.25
2023-03-22T05:56:28.613Z,21.67
2023-03-22T05:59:39.277Z,23.52
2023-03-22T06:02:47.323Z,27.35
2023-03-22T06:05:54.966Z,29.95
2023-03-22T06:09:16.958Z,24.70
2023-03-22T06:12:27.210Z,23.13
2023-03-22T06:15:49.041Z,28.17
2023-03-22T06:18:56.063Z,22.63
2023-03-22T06:21:58.805Z,29.90
2023-03-22T06:25:02.862Z,25.90
2023-03-22T06:28:12.846Z,28.05
2023-03-22T06:31:22.892Z,25.10
2023-03-22T06:34:31.039Z,26.90
2023-03-22T06:37:33.831Z,28.80
2023-03-22T06:40:36.752Z,20.17
2023-03-22T06:43:39.546Z,25.95
2023-03-22T06:47:03.222Z,23.65
2023-03-22T06:50:24.287Z,16.45
2023-03-22T06:53:42.388Z,17.88
2023-03-22T06:56:46.174Z,14.65
2023-03-22T06:59:48.765Z,19.48
2023-03-22T07:02:52.767Z,17.55
2023-03-22T07:06:07.760Z,16.63
2023-03-22T07:09:13.734Z,19.58
2023-03-22T07:12:18.737Z,17.77
2023-03-22T07:15:24.818Z,17.05
2023-03-22T07:18:34.504Z,18.77
2023-03-22T07:21:37.085Z,20.58
2023-03-22T07:24:55.712Z,17.90
2023-03-22T07:28:00.835Z,14.55
2023-03-22T07:31:07.311Z,16.98
2023-03-22T07:34:28.677Z,15.88
2023-03-22T07:37:38.312Z,17.58
2023-03-22T07:40:46.561Z,18.50
2023-03-22T07:43:58.263Z,20.15
2023-03-22T07:47:06.180Z,15.68
2023-03-22T07:50:15.370Z,15.48
2023-03-22T07:53:20.467Z,15.15
2023-03-22T07:56:23.503Z,15.57
2023-03-22T07:59:26.527Z,15.00
2023-03-22T08:02:30.378Z,19.83
2023-03-22T08:05:35.359Z,14.93
2023-03-22T08:08:40.700Z,17.27
2023-03-22T08:11:43.875Z,16.75
2023-03-22T08:14:50.577Z,15.55
2023-03-22T08:17:58.370Z,16.15
2023-03-22T08:21:11.187Z,17.00
2023-03-22T08:24:15.276Z,19.67
2023-03-22T08:27:47.551Z,16.17
2023-03-22T08:30:51.729Z,16.88
2023-03-22T08:33:56.567Z,17.52
2023-03-22T08:36:59.170Z,16.27
2023-03-22T08:40:02.097Z,22.92
2023-03-22T08:46:15.862Z,19.80
2023-03-22T08:49:20.797Z,23.17
2023-03-22T08:52:31.108Z,17.10
2023-03-22T08:55:49.240Z,20.55
2023-03-22T08:59:12.066Z,18.15
2023-03-22T09:02:30.319Z,19.77
2023-03-22T09:05:34.154Z,28.52
2023-03-22T09:08:37.030Z,18.90
2023-03-22T09:11:44.872Z,14.95
2023-03-22T09:14:49.225Z,16.70
2023-03-22T09:17:52.633Z,14.60
2023-03-22T09:20:55.463Z,20.02
2023-03-22T09:24:03.172Z,15.90
2023-03-22T09:27:16.103Z,14.55
2023-03-22T09:30:22.749Z,14.60
2023-03-22T09:33:25.657Z,16.10
2023-03-22T09:36:34.858Z,17.75
2023-03-22T09:39:38.535Z,20.35
2023-03-22T09:42:54.967Z,14.57
2023-03-22T09:45:58.778Z,16.02
2023-03-22T09:49:06.178Z,17.73
2023-03-22T09:52:14.462Z,24.88
2023-03-22T09:55:30.429Z,19.23
2023-03-22T09:58:36.176Z,14.05
2023-03-22T10:01:52.224Z,15.30
2023-03-22T10:05:09.832Z,15.88
2023-03-22T10:08:32.446Z,17.42
2023-03-22T10:11:38.088Z,17.92
2023-03-22T10:14:46.854Z,15.57
2023-03-22T10:17:55.244Z,14.98
2023-03-22T10:21:04.451Z,16.75
2023-03-22T10:24:17.009Z,16.83
2023-03-22T10:27:21.997Z,18.15
2023-03-22T10:30:28.650Z,22.25
2023-03-22T10:33:37.659Z,19.50
2023-03-22T10:36:41.604Z,15.82
2023-03-22T10:39:51.325Z,17.60
2023-03-22T10:43:03.717Z,22.63
2023-03-22T10:46:12.504Z,15.27
2023-03-22T10:49:28.600Z,17.90
2023-03-22T10:52:37.042Z,17.60
2023-03-22T10:55:44.277Z,16.95
2023-03-22T10:58:51.307Z,18.10
2023-03-22T11:01:54.318Z,19.05
2023-03-22T11:05:00.977Z,16.65
2023-03-22T11:08:04.042Z,15.40
2023-03-22T11:11:17.720Z,17.60
2023-03-22T11:14:26.839Z,21.70
2023-03-22T11:17:31.184Z,15.73
2023-03-22T11:20:35.030Z,17.80
2023-03-22T11:23:42.071Z,19.98
2023-03-22T11:27:05.713Z,17.48
2023-03-22T11:30:21.972Z,21.35
2023-03-22T11:33:26.059Z,15.25
2023-03-22T11:36:29.410Z,20.13
2023-03-22T11:39:32.081Z,21.52
2023-03-22T11:42:35.773Z,24.33
2023-03-22T11:45:42.682Z,27.83
2023-03-22T11:48:48.531Z,20.67
2023-03-22T11:51:52.371Z,20.83
2023-03-22T11:54:56.468Z,18.55
2023-03-22T11:57:58.989Z,21.70
2023-03-22T12:01:02.943Z,23.30
2023-03-22T12:04:11.542Z,18.98
2023-03-22T12:07:17.250Z,23.23
2023-03-22T12:10:26.709Z,17.85
2023-03-22T12:14:01.781Z,23.52
2023-03-22T12:17:24.474Z,19.55
2023-03-22T12:20:52.119Z,21.13
2023-03-22T12:24:01.110Z,16.88
2023-03-22T12:27:27.086Z,18.10
2023-03-22T12:30:33.904Z,20.70
2023-03-22T12:33:50.384Z,22.33
2023-03-22T12:36:56.862Z,18.60
2023-03-22T12:40:06.038Z,18.42
2023-03-22T12:43:14.455Z,16.13
2023-03-22T12:46:22.220Z,23.42
2023-03-22T12:49:52.406Z,18.10
2023-03-22T12:52:57.055Z,21.95
2023-03-22T12:56:01.099Z,15.65
2023-03-22T12:59:08.437Z,13.77
2023-03-22T13:02:27.574Z,13.68
2023-03-22T13:05:33.892Z,14.35
2023-03-22T13:09:09.153Z,12.80
2023-03-22T13:12:17.547Z,13.60
2023-03-22T13:15:41.374Z,11.13
2023-03-22T13:18:45.325Z,11.73
2023-03-22T13:21:50.024Z,15.73
2023-03-22T13:25:13.268Z,11.25
2023-03-22T13:28:26.241Z,11.18
2023-03-22T13:31:46.547Z,8.82
2023-03-22T13:34:52.824Z,10.57
2023-03-22T13:38:03.069Z,11.60
2023-03-22T13:41:25.931Z,9.95
2023-03-22T13:44:39.127Z,9.60
2023-03-22T13:47:46.903Z,8.95
2023-03-22T13:50:52.336Z,9.27
2023-03-22T13:54:20.667Z,8.52
2023-03-22T13:57:59.414Z,8.32
2023-03-22T14:01:49.640Z,9.05
2023-03-22T14:04:57.244Z,11.48
2023-03-22T14:08:04.359Z,8.52
2023-03-22T14:11:28.899Z,9.20
2023-03-22T14:14:40.580Z,9.80
2023-03-22T14:17:47.047Z,10.75
2023-03-22T14:20:55.064Z,12.20
